createdAt,value
2018-05-06T00:00:26.443Z,9.28
2018-05-06T00:02:54.764Z,9.22
2018-05-06T00:05:23.097Z,9.17
2018-05-06T00:07:51.508Z,9.15
2018-05-06T00:10:19.841Z,9.10
2018-05-06T00:12:48.215Z,9.09
2018-05-06T00:15:16.612Z,9.00
2018-05-06T00:17:44.924Z,8.97
2018-05-06T00:20:13.315Z,8.91
2018-05-06T00:22:41.613Z,8.87
2018-05-06T00:25:09.925Z,8.77
2018-05-06T00:27:38.410Z,8.72
2018-05-06T00:30:06.834Z,8.71
2018-05-06T00:32:35.130Z,8.74
2018-05-06T00:35:03.543Z,8.75
2018-05-06T00:37:31.964Z,8.64
2018-05-06T00:40:00.290Z,8.62
2018-05-06T00:42:28.605Z,8.62
2018-05-06T00:44:56.983Z,8.57
2018-05-06T00:47:25.374Z,8.56
2018-05-06T00:49:53.767Z,8.56
2018-05-06T00:52:22.181Z,8.56
2018-05-06T00:54:50.503Z,8.57
2018-05-06T00:57:18.860Z,8.53
2018-05-06T00:59:47.225Z,8.51
2018-05-06T01:02:15.619Z,8.44
2018-05-06T01:04:43.941Z,8.40
2018-05-06T01:07:12.248Z,8.41
2018-05-06T01:09:40.601Z,8.36
2018-05-06T01:12:08.958Z,8.34
2018-05-06T01:14:37.262Z,8.33
2018-05-06T01:17:05.604Z,8.28
2018-05-06T01:19:33.967Z,8.28
2018-05-06T01:22:02.369Z,8.22
2018-05-06T01:24:30.702Z,8.19
2018-05-06T01:26:59.141Z,8.19
2018-05-06T01:29:27.461Z,8.17
2018-05-06T01:31:55.777Z,8.16
2018-05-06T01:34:24.112Z,8.15
2018-05-06T01:36:52.501Z,8.09
2018-05-06T01:39:21.387Z,8.05
2018-05-06T01:41:49.705Z,8.04
2018-05-06T01:44:18.148Z,8.01
2018-05-06T01:46:46.491Z,8.02
2018-05-06T01:49:14.809Z,7.95
2018-05-06T01:51:43.142Z,7.98
2018-05-06T01:54:11.452Z,7.97
2018-05-06T01:56:39.853Z,7.97
2018-05-06T01:59:08.181Z,7.90
2018-05-06T02:01:36.501Z,7.90
2018-05-06T02:04:04.928Z,7.81
2018-05-06T02:06:33.763Z,7.78
2018-05-06T02:09:02.073Z,7.73
2018-05-06T02:11:30.401Z,7.74
2018-05-06T02:13:58.739Z,7.69
2018-05-06T02:16:27.047Z,7.65
2018-05-06T02:18:55.371Z,7.61
2018-05-06T02:21:23.766Z,7.59
2018-05-06T02:23:52.169Z,7.59
2018-05-06T02:26:20.535Z,7.55
2018-05-06T02:28:48.834Z,7.46
2018-05-06T02:31:17.153Z,7.46
2018-05-06T02:33:45.470Z,7.43
2018-05-06T02:36:13.790Z,7.40
2018-05-06T02:38:42.276Z,7.38
2018-05-06T02:41:10.618Z,7.39
2018-05-06T02:43:38.935Z,7.38
2018-05-06T02:46:07.361Z,7.37
2018-05-06T02:48:35.666Z,7.37
2018-05-06T02:51:04.006Z,7.35
2018-05-06T02:53:32.324Z,7.26
2018-05-06T02:56:00.653Z,7.23
2018-05-06T02:58:29.044Z,7.22
2018-05-06T03:00:57.437Z,7.16
2018-05-06T03:03:25.889Z,7.14
2018-05-06T03:05:54.242Z,7.17
2018-05-06T03:08:22.651Z,7.09
2018-05-06T03:10:50.982Z,7.06
2018-05-06T03:13:19.300Z,7.05
2018-05-06T03:15:47.703Z,7.04
2018-05-06T03:18:16.017Z,6.97
2018-05-06T03:20:44.399Z,7.01
2018-05-06T03:23:12.784Z,6.94
2018-05-06T03:25:41.155Z,6.97
2018-05-06T03:28:09.561Z,6.98
2018-05-06T03:30:37.959Z,6.98
2018-05-06T03:33:06.325Z,6.95
2018-05-06T03:35:34.639Z,6.94
2018-05-06T03:38:02.964Z,6.94
2018-05-06T03:40:31.393Z,6.93
2018-05-06T03:43:00.570Z,6.97
2018-05-06T03:45:28.904Z,7.00
2018-05-06T03:47:57.259Z,6.97
2018-05-06T03:50:25.605Z,7.00
2018-05-06T03:52:53.955Z,6.98
2018-05-06T03:55:22.296Z,7.00
2018-05-06T03:58:02.879Z,6.96
2018-05-06T04:00:45.077Z,6.92
2018-05-06T04:03:13.462Z,6.96
2018-05-06T04:05:41.823Z,7.02
2018-05-06T04:08:10.147Z,7.05
2018-05-06T04:10:38.473Z,7.09
2018-05-06T04:13:06.874Z,7.15
2018-05-06T04:15:35.280Z,7.20
2018-05-06T04:18:03.593Z,7.25
2018-05-06T04:20:31.920Z,7.27
2018-05-06T04:23:00.263Z,7.33
2018-05-06T04:25:29.540Z,7.40
2018-05-06T04:27:58.311Z,7.43
2018-05-06T04:30:27.129Z,7.46
2018-05-06T04:32:55.530Z,7.52
2018-05-06T04:35:24.210Z,7.59
2018-05-06T04:37:52.660Z,7.58
2018-05-06T04:40:21.216Z,7.69
2018-05-06T04:42:49.603Z,7.68
2018-05-06T04:45:18.029Z,7.71
2018-05-06T04:47:46.403Z,7.69
2018-05-06T04:50:14.742Z,7.70
2018-05-06T04:52:44.321Z,7.77
2018-05-06T04:55:12.896Z,7.79
2018-05-06T04:57:47.373Z,7.86
2018-05-06T05:00:15.832Z,7.84
2018-05-06T05:02:44.343Z,7.90
2018-05-06T05:05:12.759Z,7.85
2018-05-06T05:07:41.947Z,7.95
2018-05-06T05:10:23.380Z,8.05
2018-05-06T05:12:51.939Z,8.14
2018-05-06T05:15:20.398Z,8.24
2018-05-06T05:17:48.711Z,8.34
2018-05-06T05:20:17.080Z,8.40
2018-05-06T05:22:45.953Z,8.57
2018-05-06T05:25:15.356Z,8.59
2018-05-06T05:27:43.691Z,8.63
2018-05-06T05:30:12.096Z,8.82
2018-05-06T05:32:40.565Z,8.93
2018-05-06T05:35:09.424Z,9.04
2018-05-06T05:37:37.829Z,9.26
2018-05-06T05:40:06.263Z,9.42
2018-05-06T05:42:35.484Z,9.61
2018-05-06T05:45:03.829Z,10.17
2018-05-06T05:47:33.830Z,11.15
2018-05-06T05:50:02.088Z,12.96
2018-05-06T05:52:31.056Z,14.78
2018-05-06T05:54:59.445Z,16.61
2018-05-06T05:57:28.538Z,18.04
2018-05-06T05:59:56.919Z,18.99
2018-05-06T06:02:25.288Z,19.71
2018-05-06T06:04:53.774Z,20.41
2018-05-06T06:07:22.074Z,20.13
2018-05-06T06:09:52.255Z,20.49
2018-05-06T06:12:20.571Z,20.89
2018-05-06T06:14:49.265Z,21.13
2018-05-06T06:17:17.657Z,22.26
2018-05-06T06:19:46.024Z,22.80
2018-05-06T06:22:14.421Z,22.15
2018-05-06T06:24:42.813Z,21.96
2018-05-06T06:27:11.218Z,22.52
2018-05-06T06:29:39.750Z,22.94
2018-05-06T06:32:08.454Z,22.88
2018-05-06T06:34:36.800Z,23.83
2018-05-06T06:37:05.366Z,24.36
2018-05-06T06:39:38.097Z,24.56
2018-05-06T06:42:06.610Z,25.91
2018-05-06T06:44:34.946Z,24.89
2018-05-06T06:47:03.319Z,24.97
2018-05-06T06:49:31.782Z,24.64
2018-05-06T06:52:00.596Z,24.19
2018-05-06T06:54:29.073Z,25.10
2018-05-06T06:56:57.433Z,24.95
2018-05-06T06:59:25.802Z,24.73
2018-05-06T07:01:54.265Z,23.48
2018-05-06T07:04:22.626Z,24.55
2018-05-06T07:06:51.216Z,23.87
2018-05-06T07:09:19.797Z,25.16
2018-05-06T07:11:48.308Z,25.97
2018-05-06T07:14:16.746Z,25.56
2018-05-06T07:16:45.208Z,24.85
2018-05-06T07:19:13.661Z,25.66
2018-05-06T07:21:42.884Z,25.81
2018-05-06T07:24:11.524Z,27.23
2018-05-06T07:26:40.269Z,26.88
2018-05-06T07:29:08.626Z,28.06
2018-05-06T07:31:37.471Z,26.81
2018-05-06T07:34:05.894Z,27.66
2018-05-06T07:36:36.679Z,27.32
2018-05-06T07:39:06.592Z,27.88
2018-05-06T07:41:34.986Z,26.35
2018-05-06T07:44:03.350Z,26.68
2018-05-06T07:46:31.709Z,26.59
2018-05-06T07:49:00.162Z,27.80
2018-05-06T07:51:28.458Z,27.20
2018-05-06T07:53:57.209Z,28.12
2018-05-06T07:56:25.677Z,28.85
2018-05-06T07:58:54.083Z,28.06
2018-05-06T08:01:22.702Z,28.13
2018-05-06T08:03:51.756Z,27.69
2018-05-06T08:06:20.152Z,27.30
2018-05-06T08:08:52.137Z,27.20
2018-05-06T08:11:20.632Z,27.19
2018-05-06T08:13:49.356Z,27.38
2018-05-06T08:16:17.787Z,27.49
2018-05-06T08:18:46.099Z,27.07
2018-05-06T08:21:15.392Z,26.26
2018-05-06T08:23:43.756Z,26.04
2018-05-06T08:26:12.099Z,26.03
2018-05-06T08:28:40.497Z,26.72
2018-05-06T08:31:08.827Z,26.60
2018-05-06T08:33:37.198Z,26.57
2018-05-06T08:36:05.518Z,26.50
2018-05-06T08:38:33.890Z,27.09
2018-05-06T08:41:02.554Z,26.45
2018-05-06T08:43:31.968Z,27.05
2018-05-06T08:46:00.388Z,26.19
2018-05-06T08:48:28.769Z,26.23
2018-05-06T08:50:57.098Z,26.11
2018-05-06T08:53:25.455Z,26.85
2018-05-06T08:55:54.038Z,26.57
2018-05-06T08:58:22.408Z,27.01
2018-05-06T09:00:50.789Z,26.78
2018-05-06T09:03:19.137Z,26.81
2018-05-06T09:05:47.636Z,26.43
2018-05-06T09:08:15.982Z,25.93
2018-05-06T09:10:44.325Z,26.28
2018-05-06T09:13:12.657Z,26.66
2018-05-06T09:15:41.005Z,26.73
2018-05-06T09:18:09.322Z,25.53
2018-05-06T09:20:37.630Z,26.27
2018-05-06T09:23:05.973Z,26.31
2018-05-06T09:25:34.332Z,26.14
2018-05-06T09:28:02.593Z,26.70
2018-05-06T09:30:30.951Z,27.57
2018-05-06T09:32:59.274Z,28.17
2018-05-06T09:35:27.616Z,28.16
2018-05-06T09:37:56.113Z,27.50
2018-05-06T09:40:24.638Z,27.65
2018-05-06T09:42:55.414Z,27.96
2018-05-06T09:45:24.216Z,28.36
2018-05-06T09:47:52.583Z,27.72
2018-05-06T09:50:21.789Z,26.90
2018-05-06T09:52:50.095Z,25.95
2018-05-06T09:55:18.446Z,26.30
2018-05-06T09:57:46.762Z,26.61
2018-05-06T10:00:15.093Z,26.84
2018-05-06T10:02:43.449Z,27.12
2018-05-06T10:05:11.770Z,26.86
2018-05-06T10:07:40.085Z,26.75
2018-05-06T10:10:08.653Z,26.95
2018-05-06T10:12:36.964Z,26.18
2018-05-06T10:15:05.286Z,26.97
2018-05-06T10:17:33.784Z,26.25
2018-05-06T10:20:02.116Z,26.83
2018-05-06T10:22:30.426Z,26.90
2018-05-06T10:24:58.750Z,27.23
2018-05-06T10:27:27.103Z,26.87
2018-05-06T10:29:58.846Z,27.16
2018-05-06T10:32:27.707Z,27.27
2018-05-06T10:34:56.027Z,26.94
2018-05-06T10:37:24.628Z,27.21
2018-05-06T10:39:52.971Z,27.54
2018-05-06T10:42:21.381Z,27.66
2018-05-06T10:44:49.676Z,27.94
2018-05-06T10:47:18.073Z,27.73
2018-05-06T10:49:46.415Z,27.79
2018-05-06T10:52:14.745Z,27.65
2018-05-06T10:54:43.135Z,27.97
2018-05-06T10:57:12.656Z,27.93
2018-05-06T10:59:40.982Z,26.89
2018-05-06T11:02:09.335Z,27.23
2018-05-06T11:04:38.353Z,27.71
2018-05-06T11:07:06.786Z,27.60
2018-05-06T11:09:35.090Z,26.97
2018-05-06T11:12:03.515Z,27.02
2018-05-06T11:14:31.815Z,27.22
2018-05-06T11:17:00.190Z,27.21
2018-05-06T11:19:28.513Z,27.82
2018-05-06T11:21:56.860Z,27.87
2018-05-06T11:24:25.183Z,28.08
2018-05-06T11:26:53.625Z,27.94
2018-05-06T11:29:22.044Z,27.58
2018-05-06T11:31:50.420Z,28.18
2018-05-06T11:34:18.944Z,28.19
2018-05-06T11:36:47.251Z,28.24
2018-05-06T11:39:15.589Z,27.88
2018-05-06T11:41:44.248Z,28.24
2018-05-06T11:44:12.590Z,28.21
2018-05-06T11:46:40.945Z,29.20
2018-05-06T11:49:09.270Z,28.51
2018-05-06T11:51:37.707Z,28.87
2018-05-06T11:54:06.032Z,28.68
2018-05-06T11:56:34.386Z,28.57
2018-05-06T11:59:02.779Z,28.56
2018-05-06T12:01:31.115Z,28.03
2018-05-06T12:03:59.556Z,27.72
2018-05-06T12:06:27.907Z,27.58
2018-05-06T12:08:56.416Z,27.72
2018-05-06T12:11:24.727Z,27.25
2018-05-06T12:13:53.253Z,27.38
2018-05-06T12:16:21.593Z,27.06
2018-05-06T12:18:49.907Z,26.88
2018-05-06T12:21:18.540Z,26.06
2018-05-06T12:23:46.910Z,25.67
2018-05-06T12:26:15.289Z,25.34
2018-05-06T12:28:43.631Z,25.22
2018-05-06T12:31:11.950Z,24.53
2018-05-06T12:33:40.330Z,24.72
2018-05-06T12:36:08.685Z,25.15
2018-05-06T12:38:37.087Z,25.45
2018-05-06T12:41:05.491Z,25.98
2018-05-06T12:43:33.877Z,26.07
2018-05-06T12:46:02.202Z,25.77
2018-05-06T12:48:30.557Z,25.73
2018-05-06T12:50:58.864Z,25.98
2018-05-06T12:53:27.206Z,25.76
2018-05-06T12:55:55.541Z,25.64
2018-05-06T12:58:23.867Z,25.43
2018-05-06T13:00:52.272Z,25.45
2018-05-06T13:03:20.623Z,25.67
2018-05-06T13:05:48.984Z,25.34
2018-05-06T13:08:17.322Z,25.36
2018-05-06T13:10:45.641Z,25.54
2018-05-06T13:13:14.008Z,25.59
2018-05-06T13:15:42.326Z,25.42
2018-05-06T13:18:10.649Z,25.95
2018-05-06T13:20:38.966Z,25.48
2018-05-06T13:23:07.295Z,25.48
2018-05-06T13:25:35.639Z,25.77
2018-05-06T13:28:03.967Z,25.51
2018-05-06T13:30:32.330Z,25.63
2018-05-06T13:33:01.410Z,25.24
2018-05-06T13:35:29.788Z,24.72
2018-05-06T13:37:58.112Z,25.07
2018-05-06T13:40:26.423Z,24.77
2018-05-06T13:42:54.852Z,24.97
2018-05-06T13:45:23.166Z,24.63
2018-05-06T13:47:51.490Z,24.89
2018-05-06T13:50:19.817Z,25.12
2018-05-06T13:52:48.145Z,25.12
2018-05-06T13:55:16.502Z,25.25
2018-05-06T13:57:44.849Z,25.67
2018-05-06T14:00:13.178Z,25.69
2018-05-06T14:02:41.606Z,25.54
2018-05-06T14:05:09.931Z,25.43
2018-05-06T14:07:38.253Z,25.49
2018-05-06T14:10:06.586Z,25.36
2018-05-06T14:12:34.935Z,25.15
2018-05-06T14:15:03.290Z,25.04
2018-05-06T14:17:31.595Z,24.99
2018-05-06T14:19:59.935Z,24.77
2018-05-06T14:22:28.314Z,24.61
2018-05-06T14:24:56.652Z,24.62
2018-05-06T14:27:24.971Z,24.32
2018-05-06T14:29:53.409Z,24.56
2018-05-06T14:32:21.838Z,24.78
2018-05-06T14:34:50.160Z,24.96
2018-05-06T14:37:18.508Z,24.61
2018-05-06T14:39:46.828Z,24.69
2018-05-06T14:42:15.175Z,24.60
2018-05-06T14:44:43.524Z,24.85
2018-05-06T14:47:23.780Z,24.84
2018-05-06T14:49:52.110Z,24.32
2018-05-06T14:52:20.535Z,24.32
2018-05-06T14:54:48.887Z,24.39
2018-05-06T14:57:17.204Z,24.22
2018-05-06T14:59:45.525Z,23.91
2018-05-06T15:02:13.831Z,23.96
2018-05-06T15:04:42.143Z,24.15
2018-05-06T15:07:10.460Z,24.09
2018-05-06T15:09:38.853Z,23.81
2018-05-06T15:12:07.180Z,23.85
2018-05-06T15:14:35.489Z,23.56
2018-05-06T15:17:03.814Z,23.63
2018-05-06T15:19:32.133Z,23.59
2018-05-06T15:22:00.544Z,23.74
2018-05-06T15:24:28.862Z,23.81
2018-05-06T15:26:57.201Z,24.12
2018-05-06T15:29:25.581Z,23.93
2018-05-06T15:31:53.900Z,23.54
2018-05-06T15:34:22.272Z,23.61
2018-05-06T15:36:50.688Z,23.81
2018-05-06T15:39:19.008Z,23.77
2018-05-06T15:41:47.403Z,23.47
2018-05-06T15:44:15.709Z,23.40
2018-05-06T15:46:44.488Z,23.36
2018-05-06T15:49:12.816Z,23.44
2018-05-06T15:51:41.271Z,23.53
2018-05-06T15:54:09.599Z,23.55
2018-05-06T15:56:37.966Z,23.55
2018-05-06T15:59:06.411Z,23.28
2018-05-06T16:01:34.754Z,23.40
2018-05-06T16:04:14.937Z,23.40
2018-05-06T16:06:43.249Z,23.56
2018-05-06T16:09:11.599Z,23.61
2018-05-06T16:11:39.915Z,23.58
2018-05-06T16:14:08.281Z,23.29
2018-05-06T16:16:36.606Z,23.55
2018-05-06T16:19:04.989Z,23.61
2018-05-06T16:21:33.305Z,23.58
2018-05-06T16:24:01.685Z,23.67
2018-05-06T16:26:30.035Z,23.67
2018-05-06T16:28:58.378Z,23.56
2018-05-06T16:31:26.680Z,23.60
2018-05-06T16:33:55.062Z,23.56
2018-05-06T16:36:23.375Z,23.60
2018-05-06T16:38:51.724Z,23.44
2018-05-06T16:41:20.037Z,23.30
2018-05-06T16:43:48.384Z,23.13
2018-05-06T16:46:16.805Z,22.90
2018-05-06T16:48:45.121Z,22.95
2018-05-06T16:51:13.644Z,22.91
2018-05-06T16:53:41.999Z,23.02
2018-05-06T16:56:10.424Z,23.10
2018-05-06T16:58:38.822Z,23.09
2018-05-06T17:01:07.164Z,22.83
2018-05-06T17:03:35.484Z,22.61
2018-05-06T17:06:03.813Z,22.31
2018-05-06T17:08:32.211Z,22.05
2018-05-06T17:11:00.563Z,21.96
2018-05-06T17:13:28.891Z,21.84
2018-05-06T17:15:57.224Z,21.66
2018-05-06T17:18:25.625Z,21.35
2018-05-06T17:20:53.945Z,21.29
2018-05-06T17:23:22.275Z,21.17
2018-05-06T17:25:50.671Z,21.10
2018-05-06T17:28:18.992Z,20.91
2018-05-06T17:30:47.314Z,20.82
2018-05-06T17:33:15.653Z,20.77
2018-05-06T17:35:44.054Z,20.58
2018-05-06T17:38:12.392Z,20.42
2018-05-06T17:40:40.711Z,20.41
2018-05-06T17:43:09.024Z,20.38
2018-05-06T17:45:37.365Z,20.32
2018-05-06T17:48:05.723Z,20.20
2018-05-06T17:50:34.033Z,20.12
2018-05-06T17:53:02.354Z,20.08
2018-05-06T17:55:30.664Z,19.92
2018-05-06T17:57:59.021Z,19.82
2018-05-06T18:00:27.367Z,19.68
2018-05-06T18:02:55.769Z,19.61
2018-05-06T18:05:24.139Z,19.44
2018-05-06T18:07:52.490Z,19.30
2018-05-06T18:10:21.362Z,19.21
2018-05-06T18:12:49.776Z,19.17
2018-05-06T18:15:18.090Z,19.18
2018-05-06T18:17:46.510Z,19.01
2018-05-06T18:20:15.871Z,18.85
2018-05-06T18:22:44.271Z,18.73
2018-05-06T18:25:12.522Z,18.50
2018-05-06T18:27:40.856Z,18.39
2018-05-06T18:30:09.162Z,18.16
2018-05-06T18:32:37.490Z,18.02
2018-05-06T18:35:05.872Z,17.84
2018-05-06T18:37:34.241Z,17.66
2018-05-06T18:40:02.554Z,17.52
2018-05-06T18:42:30.953Z,17.41
2018-05-06T18:44:59.304Z,17.32
2018-05-06T18:47:27.641Z,17.28
2018-05-06T18:49:56.049Z,17.14
2018-05-06T18:52:24.380Z,17.05
2018-05-06T18:54:52.725Z,16.91
2018-05-06T18:57:21.093Z,16.78
2018-05-06T18:59:49.389Z,16.72
2018-05-06T19:02:17.750Z,16.57
2018-05-06T19:04:46.157Z,16.43
2018-05-06T19:07:14.453Z,16.29
2018-05-06T19:09:42.771Z,16.15
2018-05-06T19:12:11.603Z,16.04
2018-05-06T19:14:39.899Z,15.96
2018-05-06T19:17:08.359Z,15.90
2018-05-06T19:19:36.640Z,15.83
2018-05-06T19:22:04.970Z,15.75
2018-05-06T19:24:33.285Z,15.72
2018-05-06T19:27:01.718Z,15.70
2018-05-06T19:29:30.106Z,15.68
2018-05-06T19:31:59.068Z,15.62
2018-05-06T19:34:27.705Z,15.59
2018-05-06T19:36:56.131Z,15.52
2018-05-06T19:39:24.423Z,15.48
2018-05-06T19:41:52.874Z,15.43
2018-05-06T19:44:21.281Z,15.42
2018-05-06T19:46:49.599Z,15.34
2018-05-06T19:49:17.929Z,15.34
2018-05-06T19:51:46.316Z,15.33
2018-05-06T19:54:14.656Z,15.33
2018-05-06T19:56:43.057Z,15.31
2018-05-06T19:59:11.378Z,15.26
2018-05-06T20:01:39.706Z,15.22
2018-05-06T20:04:08.048Z,15.15
2018-05-06T20:06:36.980Z,15.12
2018-05-06T20:09:06.121Z,15.11
2018-05-06T20:11:34.514Z,15.09
2018-05-06T20:14:02.844Z,15.07
2018-05-06T20:16:31.333Z,15.01
2018-05-06T20:18:59.696Z,14.93
2018-05-06T20:21:28.115Z,14.90
2018-05-06T20:23:56.497Z,14.85
2018-05-06T20:26:24.848Z,14.79
2018-05-06T20:28:53.227Z,14.72
2018-05-06T20:31:21.901Z,14.67
2018-05-06T20:33:50.179Z,14.59
2018-05-06T20:36:18.500Z,14.53
2018-05-06T20:38:48.236Z,14.48
2018-05-06T20:41:16.838Z,14.46
2018-05-06T20:43:45.143Z,14.47
2018-05-06T20:46:13.475Z,14.43
2018-05-06T20:48:41.803Z,14.43
2018-05-06T20:51:10.127Z,14.44
2018-05-06T20:53:38.505Z,14.42
2018-05-06T20:56:06.857Z,14.41
2018-05-06T20:58:35.183Z,14.38
2018-05-06T21:01:03.537Z,14.34
2018-05-06T21:03:31.860Z,14.33
2018-05-06T21:06:00.271Z,14.30
2018-05-06T21:08:28.858Z,14.30
2018-05-06T21:10:57.295Z,14.26
2018-05-06T21:13:25.659Z,14.24
2018-05-06T21:15:54.697Z,14.22
2018-05-06T21:18:23.020Z,14.12
2018-05-06T21:20:51.337Z,14.14
2018-05-06T21:23:19.662Z,14.08
2018-05-06T21:25:47.971Z,14.03
2018-05-06T21:28:16.301Z,14.02
2018-05-06T21:30:44.629Z,14.00
2018-05-06T21:33:13.276Z,13.99
2018-05-06T21:35:42.164Z,13.97
2018-05-06T21:38:10.516Z,13.94
2018-05-06T21:40:38.826Z,13.88
2018-05-06T21:43:07.182Z,13.77
2018-05-06T21:45:35.576Z,13.74
2018-05-06T21:48:04.067Z,13.67
2018-05-06T21:50:32.405Z,13.61
2018-05-06T21:53:00.764Z,13.51
2018-05-06T21:55:29.137Z,13.41
2018-05-06T21:57:57.446Z,13.31
2018-05-06T22:00:25.881Z,13.23
2018-05-06T22:02:54.234Z,13.19
2018-05-06T22:05:22.566Z,13.12
2018-05-06T22:07:51.000Z,13.05
2018-05-06T22:10:19.366Z,13.06
2018-05-06T22:12:47.701Z,13.06
2018-05-06T22:15:16.044Z,12.98
2018-05-06T22:17:44.487Z,12.89
2018-05-06T22:20:12.846Z,12.79
2018-05-06T22:22:41.162Z,12.73
2018-05-06T22:25:09.497Z,12.68
2018-05-06T22:27:37.843Z,12.63
2018-05-06T22:30:07.743Z,12.56
2018-05-06T22:32:36.046Z,12.58
2018-05-06T22:35:04.515Z,12.61
2018-05-06T22:37:32.813Z,12.57
2018-05-06T22:40:01.238Z,12.53
2018-05-06T22:42:29.625Z,12.47
2018-05-06T22:44:57.950Z,12.39
2018-05-06T22:47:26.304Z,12.28
2018-05-06T22:49:54.651Z,12.19
2018-05-06T22:52:22.982Z,12.07
2018-05-06T22:54:51.406Z,12.01
2018-05-06T22:57:19.752Z,11.90
2018-05-06T22:59:48.099Z,11.87
2018-05-06T23:02:16.480Z,11.85
2018-05-06T23:04:44.800Z,11.79
2018-05-06T23:07:13.164Z,11.73
2018-05-06T23:09:41.482Z,11.64
2018-05-06T23:12:09.830Z,11.61
2018-05-06T23:14:38.238Z,11.54
2018-05-06T23:17:06.565Z,11.42
2018-05-06T23:19:34.930Z,11.44
2018-05-06T23:22:03.358Z,11.36
2018-05-06T23:24:31.661Z,11.38
2018-05-06T23:26:59.991Z,11.39
2018-05-06T23:29:28.380Z,11.37
2018-05-06T23:31:56.782Z,11.39
2018-05-06T23:34:25.169Z,11.46
2018-05-06T23:36:53.481Z,11.43
2018-05-06T23:39:21.800Z,11.39
2018-05-06T23:41:50.115Z,11.31
2018-05-06T23:44:18.435Z,11.30
2018-05-06T23:46:46.776Z,11.29
2018-05-06T23:49:15.196Z,11.25
2018-05-06T23:51:43.519Z,11.22
2018-05-06T23:54:11.841Z,11.22
2018-05-06T23:56:40.189Z,11.13
2018-05-06T23:59:08.585Z,11.08
